Elkhorn, Missouri
Current Conditions -  °F | °C
As of 6:15 PM on Friday 21 Nov 2014 (Local Time) from KFYG Reporting Station
Unknown Precip Unknown Precip  
Wind Chill: 35°   Ceiling: 2300
Heat Index: 41°   Visibility: 10mi
Dew Point: 25°   Wind: 9mph
Humidity: 53%   Direction: 130°SE
Pressure: 30.24"   Gusts: NA
Location:  38.7835°N, 91.2441°W
Report Text: KFYG 220015Z AUTO 13008KT 10SM UP BKN023 OVC035 05/M04 A3024 RMK AO2
Loading
Personal Weather Stations






























Interactive Weather Map New forecast layout! Learn more

10-Day Weather Forecast

Advertisements
Track Severe Weather on mobile